Sandwich, United Kingdom
Current Conditions -  °F | °C
As of 6:20 AM on Wednesday 26 Nov 2014 (Local Time) from EGMC Reporting Station
Moderate Rain Moderate Rain  
Wind Chill: 48°   Ceiling: 700
Heat Index: 48°   Visibility: 2.5mi
Dew Point: 45°   Wind: 2mph
Humidity: 87%   Direction: 130°SE
Pressure: 29.88"   Gusts: NA
Location:  51.27°N, 1.34°E
Report Text: EGMC 260620Z 13002KT 4000 RA BKN007 09/07 Q1012
Loading
Personal Weather Stations






























Interactive Weather Map New forecast layout! Learn more

10-Day Weather Forecast

Advertisements
Track Severe Weather on mobile